sensor_id;sensor_type;location;lat;lon;timestamp;temperature;humidity
5461;DHT22;2753;49.196;8.286;2023-05-16T00:00:11;15.40;99.90
5461;DHT22;2753;49.196;8.286;2023-05-16T00:02:37;15.20;99.90
5461;DHT22;2753;49.196;8.286;2023-05-16T00:05:04;15.20;99.90
5461;DHT22;2753;49.196;8.286;2023-05-16T00:07:32;15.20;99.90
5461;DHT22;2753;49.196;8.286;2023-05-16T00:09:58;15.20;99.90
5461;DHT22;2753;49.196;8.286;2023-05-16T00:12:24;15.20;99.90
5461;DHT22;2753;49.196;8.286;2023-05-16T00:14:50;15.10;99.90
5461;DHT22;2753;49.196;8.286;2023-05-16T00:17:17;15.10;99.90
5461;DHT22;2753;49.196;8.286;2023-05-16T00:19:45;15.10;99.90
5461;DHT22;2753;49.196;8.286;2023-05-16T00:22:13;15.10;99.90
5461;DHT22;2753;49.196;8.286;2023-05-16T00:24:40;15.00;99.90
5461;DHT22;2753;49.196;8.286;2023-05-16T00:27:06;15.00;99.90
5461;DHT22;2753;49.196;8.286;2023-05-16T00:29:34;15.00;99.90
5461;DHT22;2753;49.196;8.286;2023-05-16T00:31:59;15.00;99.90
5461;DHT22;2753;49.196;8.286;2023-05-16T00:34:25;14.90;99.90
5461;DHT22;2753;49.196;8.286;2023-05-16T00:36:51;14.90;99.90
5461;DHT22;2753;49.196;8.286;2023-05-16T00:39:17;14.90;99.90
5461;DHT22;2753;49.196;8.286;2023-05-16T00:41:43;14.90;99.90
5461;DHT22;2753;49.196;8.286;2023-05-16T00:44:10;14.90;99.90
5461;DHT22;2753;49.196;8.286;2023-05-16T00:46:36;14.90;99.90
5461;DHT22;2753;49.196;8.286;2023-05-16T00:49:02;14.90;99.90
5461;DHT22;2753;49.196;8.286;2023-05-16T00:51:28;14.80;99.90
5461;DHT22;2753;49.196;8.286;2023-05-16T00:53:56;14.80;99.90
5461;DHT22;2753;49.196;8.286;2023-05-16T00:56:22;14.80;99.90
5461;DHT22;2753;49.196;8.286;2023-05-16T00:58:48;14.80;99.90
5461;DHT22;2753;49.196;8.286;2023-05-16T01:01:15;14.80;99.90
5461;DHT22;2753;49.196;8.286;2023-05-16T01:03:41;14.70;99.90
5461;DHT22;2753;49.196;8.286;2023-05-16T01:06:11;14.70;99.90
5461;DHT22;2753;49.196;8.286;2023-05-16T01:08:37;14.80;99.90
5461;DHT22;2753;49.196;8.286;2023-05-16T01:16:25;14.70;99.90
5461;DHT22;2753;49.196;8.286;2023-05-16T01:22:02;14.80;99.90
5461;DHT22;2753;49.196;8.286;2023-05-16T01:24:43;14.80;99.90
5461;DHT22;2753;49.196;8.286;2023-05-16T01:27:15;14.80;99.90
5461;DHT22;2753;49.196;8.286;2023-05-16T01:29:41;14.80;99.90
5461;DHT22;2753;49.196;8.286;2023-05-16T01:32:07;14.80;99.90
5461;DHT22;2753;49.196;8.286;2023-05-16T01:34:32;14.80;99.90
5461;DHT22;2753;49.196;8.286;2023-05-16T01:37:13;14.80;99.90
5461;DHT22;2753;49.196;8.286;2023-05-16T01:40:02;14.80;99.90
5461;DHT22;2753;49.196;8.286;2023-05-16T01:42:36;14.80;99.90
5461;DHT22;2753;49.196;8.286;2023-05-16T01:45:11;14.80;99.90
5461;DHT22;2753;49.196;8.286;2023-05-16T01:47:40;14.70;99.90
5461;DHT22;2753;49.196;8.286;2023-05-16T01:50:13;14.70;99.90
5461;DHT22;2753;49.196;8.286;2023-05-16T01:57:55;14.60;99.90
5461;DHT22;2753;49.196;8.286;2023-05-16T02:00:23;14.60;99.90
5461;DHT22;2753;49.196;8.286;2023-05-16T02:02:48;14.60;99.90
5461;DHT22;2753;49.196;8.286;2023-05-16T02:05:14;14.60;99.90
5461;DHT22;2753;49.196;8.286;2023-05-16T02:07:40;14.60;99.90
5461;DHT22;2753;49.196;8.286;2023-05-16T02:10:06;14.60;99.90
5461;DHT22;2753;49.196;8.286;2023-05-16T02:12:32;14.60;99.90
5461;DHT22;2753;49.196;8.286;2023-05-16T02:14:58;14.60;99.90
5461;DHT22;2753;49.196;8.286;2023-05-16T02:17:23;14.60;99.90
5461;DHT22;2753;49.196;8.286;2023-05-16T02:19:49;14.50;99.90
5461;DHT22;2753;49.196;8.286;2023-05-16T02:22:14;14.50;99.90
5461;DHT22;2753;49.196;8.286;2023-05-16T02:24:40;14.30;99.90
5461;DHT22;2753;49.196;8.286;2023-05-16T02:27:06;14.40;99.90
5461;DHT22;2753;49.196;8.286;2023-05-16T02:29:31;14.40;99.90
5461;DHT22;2753;49.196;8.286;2023-05-16T02:31:57;14.40;99.90
5461;DHT22;2753;49.196;8.286;2023-05-16T02:34:23;14.40;99.90
5461;DHT22;2753;49.196;8.286;2023-05-16T02:36:48;14.40;99.90
5461;DHT22;2753;49.196;8.286;2023-05-16T02:39:14;14.40;99.90
5461;DHT22;2753;49.196;8.286;2023-05-16T02:41:40;14.30;99.90
5461;DHT22;2753;49.196;8.286;2023-05-16T02:44:06;14.30;99.90
5461;DHT22;2753;49.196;8.286;2023-05-16T02:46:34;14.30;99.90
5461;DHT22;2753;49.196;8.286;2023-05-16T02:49:00;14.40;99.90
5461;DHT22;2753;49.196;8.286;2023-05-16T02:51:27;14.30;99.90
5461;DHT22;2753;49.196;8.286;2023-05-16T02:53:53;14.30;99.90
5461;DHT22;2753;49.196;8.286;2023-05-16T02:56:21;14.30;99.90
5461;DHT22;2753;49.196;8.286;2023-05-16T02:58:48;14.20;99.90
5461;DHT22;2753;49.196;8.286;2023-05-16T03:01:15;14.20;99.90
5461;DHT22;2753;49.196;8.286;2023-05-16T03:03:41;14.20;99.90
5461;DHT22;2753;49.196;8.286;2023-05-16T03:06:07;14.10;99.90
5461;DHT22;2753;49.196;8.286;2023-05-16T03:08:33;14.10;99.90
5461;DHT22;2753;49.196;8.286;2023-05-16T03:10:59;14.10;99.90
5461;DHT22;2753;49.196;8.286;2023-05-16T03:13:25;14.10;99.90
5461;DHT22;2753;49.196;8.286;2023-05-16T03:15:51;14.10;99.90
5461;DHT22;2753;49.196;8.286;2023-05-16T03:18:17;14.10;99.90
5461;DHT22;2753;49.196;8.286;2023-05-16T03:20:43;14.10;99.90
5461;DHT22;2753;49.196;8.286;2023-05-16T03:23:08;14.00;99.90
5461;DHT22;2753;49.196;8.286;2023-05-16T03:25:35;14.00;99.90
5461;DHT22;2753;49.196;8.286;2023-05-16T03:28:01;14.00;99.90
5461;DHT22;2753;49.196;8.286;2023-05-16T03:30:27;14.00;99.90
5461;DHT22;2753;49.196;8.286;2023-05-16T03:32:53;14.00;99.90
5461;DHT22;2753;49.196;8.286;2023-05-16T03:35:19;14.00;99.90
5461;DHT22;2753;49.196;8.286;2023-05-16T03:37:45;13.90;99.90
5461;DHT22;2753;49.196;8.286;2023-05-16T03:40:11;13.90;99.90
5461;DHT22;2753;49.196;8.286;2023-05-16T03:42:37;13.90;99.90
5461;DHT22;2753;49.196;8.286;2023-05-16T03:45:04;13.90;99.90
5461;DHT22;2753;49.196;8.286;2023-05-16T03:47:31;13.90;99.90
5461;DHT22;2753;49.196;8.286;2023-05-16T03:49:57;13.90;99.90
5461;DHT22;2753;49.196;8.286;2023-05-16T03:52:22;13.90;99.90
5461;DHT22;2753;49.196;8.286;2023-05-16T03:54:48;13.80;99.90
5461;DHT22;2753;49.196;8.286;2023-05-16T03:57:14;13.80;99.90
5461;DHT22;2753;49.196;8.286;2023-05-16T03:59:41;13.70;99.90
5461;DHT22;2753;49.196;8.286;2023-05-16T04:02:07;13.70;99.90
5461;DHT22;2753;49.196;8.286;2023-05-16T04:04:32;13.70;99.90
5461;DHT22;2753;49.196;8.286;2023-05-16T04:06:59;13.70;99.90
5461;DHT22;2753;49.196;8.286;2023-05-16T04:09:25;13.60;99.90
5461;DHT22;2753;49.196;8.286;2023-05-16T04:11:51;13.60;99.90
5461;DHT22;2753;49.196;8.286;2023-05-16T04:14:16;13.60;99.90
5461;DHT22;2753;49.196;8.286;2023-05-16T04:16:42;13.50;99.90
5461;DHT22;2753;49.196;8.286;2023-05-16T04:19:07;13.50;99.90
5461;DHT22;2753;49.196;8.286;2023-05-16T04:21:33;13.50;99.90
5461;DHT22;2753;49.196;8.286;2023-05-16T04:24:00;13.50;99.90
5461;DHT22;2753;49.196;8.286;2023-05-16T04:26:26;13.50;99.90
5461;DHT22;2753;49.196;8.286;2023-05-16T04:28:52;13.50;99.90
5461;DHT22;2753;49.196;8.286;2023-05-16T04:31:18;13.50;99.90
5461;DHT22;2753;49.196;8.286;2023-05-16T04:33:43;13.50;99.90
5461;DHT22;2753;49.196;8.286;2023-05-16T04:36:10;13.40;99.90
5461;DHT22;2753;49.196;8.286;2023-05-16T04:38:36;13.40;99.90
5461;DHT22;2753;49.196;8.286;2023-05-16T04:41:02;13.30;99.90
5461;DHT22;2753;49.196;8.286;2023-05-16T04:43:28;13.30;99.90
5461;DHT22;2753;49.196;8.286;2023-05-16T04:45:54;13.30;99.90
5461;DHT22;2753;49.196;8.286;2023-05-16T04:48:23;13.30;99.90
5461;DHT22;2753;49.196;8.286;2023-05-16T04:50:48;13.20;99.90
5461;DHT22;2753;49.196;8.286;2023-05-16T04:53:14;13.30;99.90
5461;DHT22;2753;49.196;8.286;2023-05-16T04:55:40;13.40;99.90
5461;DHT22;2753;49.196;8.286;2023-05-16T04:58:06;13.40;99.90
5461;DHT22;2753;49.196;8.286;2023-05-16T05:00:32;13.50;99.90
5461;DHT22;2753;49.196;8.286;2023-05-16T05:02:58;13.50;99.90
5461;DHT22;2753;49.196;8.286;2023-05-16T05:05:24;13.50;99.90
5461;DHT22;2753;49.196;8.286;2023-05-16T05:07:50;13.50;99.90
5461;DHT22;2753;49.196;8.286;2023-05-16T05:10:15;13.60;99.90
5461;DHT22;2753;49.196;8.286;2023-05-16T05:12:41;13.60;99.90
5461;DHT22;2753;49.196;8.286;2023-05-16T05:15:07;13.60;99.90
5461;DHT22;2753;49.196;8.286;2023-05-16T05:17:33;13.60;99.90
5461;DHT22;2753;49.196;8.286;2023-05-16T05:19:59;13.70;99.90
5461;DHT22;2753;49.196;8.286;2023-05-16T05:22:24;13.70;99.90
5461;DHT22;2753;49.196;8.286;2023-05-16T05:24:50;13.80;99.90
5461;DHT22;2753;49.196;8.286;2023-05-16T05:27:16;13.80;99.90
5461;DHT22;2753;49.196;8.286;2023-05-16T05:29:41;13.80;99.90
5461;DHT22;2753;49.196;8.286;2023-05-16T05:32:07;13.80;99.90
5461;DHT22;2753;49.196;8.286;2023-05-16T05:34:33;13.80;99.90
5461;DHT22;2753;49.196;8.286;2023-05-16T05:36:59;13.80;99.90
5461;DHT22;2753;49.196;8.286;2023-05-16T05:39:24;13.90;99.90
5461;DHT22;2753;49.196;8.286;2023-05-16T05:41:51;13.90;99.90
5461;DHT22;2753;49.196;8.286;2023-05-16T05:44:17;13.90;99.90
5461;DHT22;2753;49.196;8.286;2023-05-16T05:46:42;13.90;99.90
5461;DHT22;2753;49.196;8.286;2023-05-16T05:49:08;13.90;99.90
5461;DHT22;2753;49.196;8.286;2023-05-16T05:51:34;13.90;99.90
5461;DHT22;2753;49.196;8.286;2023-05-16T05:54:00;13.90;99.90
5461;DHT22;2753;49.196;8.286;2023-05-16T05:56:26;13.90;99.90
5461;DHT22;2753;49.196;8.286;2023-05-16T05:58:52;13.90;99.90
5461;DHT22;2753;49.196;8.286;2023-05-16T06:01:17;14.00;99.90
5461;DHT22;2753;49.196;8.286;2023-05-16T06:03:45;14.00;99.90
5461;DHT22;2753;49.196;8.286;2023-05-16T06:06:11;13.90;99.90
5461;DHT22;2753;49.196;8.286;2023-05-16T06:08:37;13.90;99.90
5461;DHT22;2753;49.196;8.286;2023-05-16T06:11:02;13.90;99.90
5461;DHT22;2753;49.196;8.286;2023-05-16T06:13:28;13.90;99.90
5461;DHT22;2753;49.196;8.286;2023-05-16T06:15:54;13.90;99.90
5461;DHT22;2753;49.196;8.286;2023-05-16T06:18:20;14.00;99.90
5461;DHT22;2753;49.196;8.286;2023-05-16T06:20:46;14.00;99.90
5461;DHT22;2753;49.196;8.286;2023-05-16T06:23:12;14.10;99.90
5461;DHT22;2753;49.196;8.286;2023-05-16T06:25:37;14.10;99.90
5461;DHT22;2753;49.196;8.286;2023-05-16T06:28:03;14.10;99.90
5461;DHT22;2753;49.196;8.286;2023-05-16T06:30:29;14.10;99.90
5461;DHT22;2753;49.196;8.286;2023-05-16T06:32:55;14.10;99.90
5461;DHT22;2753;49.196;8.286;2023-05-16T06:35:21;14.20;99.90
5461;DHT22;2753;49.196;8.286;2023-05-16T06:37:47;14.10;99.90
5461;DHT22;2753;49.196;8.286;2023-05-16T06:40:13;14.10;99.90
5461;DHT22;2753;49.196;8.286;2023-05-16T06:42:38;13.70;99.90
5461;DHT22;2753;49.196;8.286;2023-05-16T06:45:05;14.20;99.90
5461;DHT22;2753;49.196;8.286;2023-05-16T06:47:31;14.20;99.90
5461;DHT22;2753;49.196;8.286;2023-05-16T06:49:57;14.20;99.90
5461;DHT22;2753;49.196;8.286;2023-05-16T06:52:22;14.20;99.90
5461;DHT22;2753;49.196;8.286;2023-05-16T06:54:48;14.20;99.90
5461;DHT22;2753;49.196;8.286;2023-05-16T06:57:14;14.20;99.90
5461;DHT22;2753;49.196;8.286;2023-05-16T06:59:41;14.20;99.90
5461;DHT22;2753;49.196;8.286;2023-05-16T07:02:07;14.10;99.90
5461;DHT22;2753;49.196;8.286;2023-05-16T07:04:32;14.10;99.90
5461;DHT22;2753;49.196;8.286;2023-05-16T07:07:00;14.10;99.90
5461;DHT22;2753;49.196;8.286;2023-05-16T07:09:26;14.00;99.90
5461;DHT22;2753;49.196;8.286;2023-05-16T07:11:52;14.00;99.90
5461;DHT22;2753;49.196;8.286;2023-05-16T07:14:17;14.00;99.90
5461;DHT22;2753;49.196;8.286;2023-05-16T07:16:43;14.00;99.90
5461;DHT22;2753;49.196;8.286;2023-05-16T07:19:09;14.00;99.90
5461;DHT22;2753;49.196;8.286;2023-05-16T07:21:34;14.00;99.90
5461;DHT22;2753;49.196;8.286;2023-05-16T07:24:00;14.00;99.90
5461;DHT22;2753;49.196;8.286;2023-05-16T07:26:26;14.00;99.90
5461;DHT22;2753;49.196;8.286;2023-05-16T07:28:52;14.00;99.90
5461;DHT22;2753;49.196;8.286;2023-05-16T07:31:17;13.80;99.90
5461;DHT22;2753;49.196;8.286;2023-05-16T07:33:44;13.80;99.90
5461;DHT22;2753;49.196;8.286;2023-05-16T07:36:12;13.90;99.90
5461;DHT22;2753;49.196;8.286;2023-05-16T07:38:37;14.00;99.80
5461;DHT22;2753;49.196;8.286;2023-05-16T07:41:03;14.00;99.60
5461;DHT22;2753;49.196;8.286;2023-05-16T07:43:29;14.00;99.40
5461;DHT22;2753;49.196;8.286;2023-05-16T07:45:54;14.00;99.40
5461;DHT22;2753;49.196;8.286;2023-05-16T07:48:20;14.00;99.10
5461;DHT22;2753;49.196;8.286;2023-05-16T07:50:46;14.10;99.20
5461;DHT22;2753;49.196;8.286;2023-05-16T07:53:12;14.10;98.80
5461;DHT22;2753;49.196;8.286;2023-05-16T07:55:37;14.10;98.60
5461;DHT22;2753;49.196;8.286;2023-05-16T07:58:03;14.10;98.50
5461;DHT22;2753;49.196;8.286;2023-05-16T08:00:29;14.20;98.40
5461;DHT22;2753;49.196;8.286;2023-05-16T08:02:55;14.20;98.40
5461;DHT22;2753;49.196;8.286;2023-05-16T08:05:22;14.30;98.30
5461;DHT22;2753;49.196;8.286;2023-05-16T08:07:48;14.30;98.10
5461;DHT22;2753;49.196;8.286;2023-05-16T08:10:14;14.30;98.00
5461;DHT22;2753;49.196;8.286;2023-05-16T08:12:40;14.30;98.00
5461;DHT22;2753;49.196;8.286;2023-05-16T08:15:06;14.30;98.40
5461;DHT22;2753;49.196;8.286;2023-05-16T08:17:32;14.30;98.40
5461;DHT22;2753;49.196;8.286;2023-05-16T08:19:58;14.30;98.50
5461;DHT22;2753;49.196;8.286;2023-05-16T08:22:26;14.30;98.50
5461;DHT22;2753;49.196;8.286;2023-05-16T08:24:51;14.30;98.30
5461;DHT22;2753;49.196;8.286;2023-05-16T08:27:17;14.40;98.40
5461;DHT22;2753;49.196;8.286;2023-05-16T08:29:43;14.50;98.40
5461;DHT22;2753;49.196;8.286;2023-05-16T08:32:08;14.50;98.40
5461;DHT22;2753;49.196;8.286;2023-05-16T08:34:35;14.50;98.20
5461;DHT22;2753;49.196;8.286;2023-05-16T08:37:01;14.50;98.20
5461;DHT22;2753;49.196;8.286;2023-05-16T08:39:27;14.50;98.30
5461;DHT22;2753;49.196;8.286;2023-05-16T08:41:54;14.50;98.00
5461;DHT22;2753;49.196;8.286;2023-05-16T08:44:21;14.50;98.00
5461;DHT22;2753;49.196;8.286;2023-05-16T08:46:51;14.40;98.10
5461;DHT22;2753;49.196;8.286;2023-05-16T08:49:20;14.40;97.90
5461;DHT22;2753;49.196;8.286;2023-05-16T08:51:47;14.40;98.00
5461;DHT22;2753;49.196;8.286;2023-05-16T08:54:14;14.40;98.20
5461;DHT22;2753;49.196;8.286;2023-05-16T08:56:41;14.40;98.20
5461;DHT22;2753;49.196;8.286;2023-05-16T08:59:08;14.30;98.20
5461;DHT22;2753;49.196;8.286;2023-05-16T09:01:36;14.30;98.10
5461;DHT22;2753;49.196;8.286;2023-05-16T09:04:03;14.20;97.90
5461;DHT22;2753;49.196;8.286;2023-05-16T09:06:29;14.20;98.00
5461;DHT22;2753;49.196;8.286;2023-05-16T09:08:55;14.20;98.00
5461;DHT22;2753;49.196;8.286;2023-05-16T09:11:22;14.20;97.80
5461;DHT22;2753;49.196;8.286;2023-05-16T09:13:48;14.20;97.80
5461;DHT22;2753;49.196;8.286;2023-05-16T09:16:18;14.10;97.90
5461;DHT22;2753;49.196;8.286;2023-05-16T09:18:51;14.10;97.90
5461;DHT22;2753;49.196;8.286;2023-05-16T09:21:18;14.20;97.90
5461;DHT22;2753;49.196;8.286;2023-05-16T09:23:44;14.20;98.00
5461;DHT22;2753;49.196;8.286;2023-05-16T09:26:13;14.20;98.00
5461;DHT22;2753;49.196;8.286;2023-05-16T09:28:39;14.20;97.70
5461;DHT22;2753;49.196;8.286;2023-05-16T09:31:23;14.10;97.80
5461;DHT22;2753;49.196;8.286;2023-05-16T09:33:51;14.10;97.80
5461;DHT22;2753;49.196;8.286;2023-05-16T09:36:17;14.10;97.70
5461;DHT22;2753;49.196;8.286;2023-05-16T09:38:43;14.10;97.90
5461;DHT22;2753;49.196;8.286;2023-05-16T09:41:09;14.10;97.80
5461;DHT22;2753;49.196;8.286;2023-05-16T09:43:38;14.00;97.60
5461;DHT22;2753;49.196;8.286;2023-05-16T09:46:04;14.10;97.80
5461;DHT22;2753;49.196;8.286;2023-05-16T09:48:31;14.10;97.60
5461;DHT22;2753;49.196;8.286;2023-05-16T09:50:57;14.10;97.40
5461;DHT22;2753;49.196;8.286;2023-05-16T09:53:31;14.10;97.50
5461;DHT22;2753;49.196;8.286;2023-05-16T09:56:09;14.10;97.10
5461;DHT22;2753;49.196;8.286;2023-05-16T09:58:37;14.20;97.40
5461;DHT22;2753;49.196;8.286;2023-05-16T10:01:03;14.30;97.20
5461;DHT22;2753;49.196;8.286;2023-05-16T10:03:30;14.30;97.20
5461;DHT22;2753;49.196;8.286;2023-05-16T10:05:56;14.30;96.90
5461;DHT22;2753;49.196;8.286;2023-05-16T10:08:23;14.40;96.90
5461;DHT22;2753;49.196;8.286;2023-05-16T10:10:54;14.40;96.60
5461;DHT22;2753;49.196;8.286;2023-05-16T10:13:22;14.50;96.80
5461;DHT22;2753;49.196;8.286;2023-05-16T10:15:49;14.50;97.00
5461;DHT22;2753;49.196;8.286;2023-05-16T10:18:17;14.50;96.80
5461;DHT22;2753;49.196;8.286;2023-05-16T10:20:45;14.50;97.00
5461;DHT22;2753;49.196;8.286;2023-05-16T10:23:16;14.50;96.90
5461;DHT22;2753;49.196;8.286;2023-05-16T10:25:44;14.40;97.00
5461;DHT22;2753;49.196;8.286;2023-05-16T10:28:10;14.40;96.90
5461;DHT22;2753;49.196;8.286;2023-05-16T10:30:40;14.30;96.90
5461;DHT22;2753;49.196;8.286;2023-05-16T10:33:15;14.20;96.90
5461;DHT22;2753;49.196;8.286;2023-05-16T10:35:42;14.20;97.00
5461;DHT22;2753;49.196;8.286;2023-05-16T10:38:10;14.20;97.00
5461;DHT22;2753;49.196;8.286;2023-05-16T10:40:38;14.20;97.00
5461;DHT22;2753;49.196;8.286;2023-05-16T10:43:05;14.20;97.10
5461;DHT22;2753;49.196;8.286;2023-05-16T10:45:32;14.20;97.10
5461;DHT22;2753;49.196;8.286;2023-05-16T10:48:00;14.20;96.80
5461;DHT22;2753;49.196;8.286;2023-05-16T10:50:43;14.20;97.00
5461;DHT22;2753;49.196;8.286;2023-05-16T10:56:05;14.20;96.70
5461;DHT22;2753;49.196;8.286;2023-05-16T11:14:23;14.40;97.00
5461;DHT22;2753;49.196;8.286;2023-05-16T11:27:43;14.40;96.50
5461;DHT22;2753;49.196;8.286;2023-05-16T11:32:39;14.40;96.40
5461;DHT22;2753;49.196;8.286;2023-05-16T11:35:10;14.40;96.20
5461;DHT22;2753;49.196;8.286;2023-05-16T11:37:37;14.50;96.20
5461;DHT22;2753;49.196;8.286;2023-05-16T11:40:08;14.50;96.00
5461;DHT22;2753;49.196;8.286;2023-05-16T11:42:42;14.50;95.90
5461;DHT22;2753;49.196;8.286;2023-05-16T11:45:19;14.50;95.80
5461;DHT22;2753;49.196;8.286;2023-05-16T11:47:47;14.50;95.80
5461;DHT22;2753;49.196;8.286;2023-05-16T11:50:21;14.50;96.10
5461;DHT22;2753;49.196;8.286;2023-05-16T11:52:52;14.40;96.30
5461;DHT22;2753;49.196;8.286;2023-05-16T11:55:20;14.30;96.40
5461;DHT22;2753;49.196;8.286;2023-05-16T11:57:46;14.30;96.40
5461;DHT22;2753;49.196;8.286;2023-05-16T12:00:17;14.20;96.20
5461;DHT22;2753;49.196;8.286;2023-05-16T12:02:47;14.20;96.30
5461;DHT22;2753;49.196;8.286;2023-05-16T12:05:15;14.20;96.20
5461;DHT22;2753;49.196;8.286;2023-05-16T12:07:45;14.20;96.30
5461;DHT22;2753;49.196;8.286;2023-05-16T12:10:13;14.20;96.20
5461;DHT22;2753;49.196;8.286;2023-05-16T12:12:45;14.10;96.20
5461;DHT22;2753;49.196;8.286;2023-05-16T12:15:12;14.00;96.20
5461;DHT22;2753;49.196;8.286;2023-05-16T12:17:39;14.00;96.20
5461;DHT22;2753;49.196;8.286;2023-05-16T12:20:07;14.00;96.30
5461;DHT22;2753;49.196;8.286;2023-05-16T12:22:43;13.90;96.30
5461;DHT22;2753;49.196;8.286;2023-05-16T12:25:27;14.00;96.30
5461;DHT22;2753;49.196;8.286;2023-05-16T12:27:54;14.00;95.10
5461;DHT22;2753;49.196;8.286;2023-05-16T12:30:24;14.00;94.90
5461;DHT22;2753;49.196;8.286;2023-05-16T12:33:10;14.00;94.70
5461;DHT22;2753;49.196;8.286;2023-05-16T12:35:43;13.90;94.50
5461;DHT22;2753;49.196;8.286;2023-05-16T12:38:11;13.90;94.30
5461;DHT22;2753;49.196;8.286;2023-05-16T12:40:39;13.90;94.00
5461;DHT22;2753;49.196;8.286;2023-05-16T12:43:15;13.90;94.20
5461;DHT22;2753;49.196;8.286;2023-05-16T12:45:41;13.90;94.10
5461;DHT22;2753;49.196;8.286;2023-05-16T12:48:13;13.90;93.90
5461;DHT22;2753;49.196;8.286;2023-05-16T12:50:39;13.90;93.70
5461;DHT22;2753;49.196;8.286;2023-05-16T12:53:10;13.90;93.40
5461;DHT22;2753;49.196;8.286;2023-05-16T12:55:37;13.90;93.00
5461;DHT22;2753;49.196;8.286;2023-05-16T12:58:02;13.80;92.40
5461;DHT22;2753;49.196;8.286;2023-05-16T13:00:28;13.70;92.20
5461;DHT22;2753;49.196;8.286;2023-05-16T13:02:54;13.70;92.30
5461;DHT22;2753;49.196;8.286;2023-05-16T13:05:20;13.70;92.00
5461;DHT22;2753;49.196;8.286;2023-05-16T13:07:48;13.70;92.00
5461;DHT22;2753;49.196;8.286;2023-05-16T13:10:16;13.70;91.70
5461;DHT22;2753;49.196;8.286;2023-05-16T13:12:42;13.70;91.60
5461;DHT22;2753;49.196;8.286;2023-05-16T13:15:09;13.70;91.70
5461;DHT22;2753;49.196;8.286;2023-05-16T13:17:37;13.60;91.50
5461;DHT22;2753;49.196;8.286;2023-05-16T13:20:04;13.60;91.70
5461;DHT22;2753;49.196;8.286;2023-05-16T13:22:37;13.70;91.60
5461;DHT22;2753;49.196;8.286;2023-05-16T13:25:03;13.70;91.50
5461;DHT22;2753;49.196;8.286;2023-05-16T13:27:30;13.70;91.70
5461;DHT22;2753;49.196;8.286;2023-05-16T13:29:56;13.70;91.30
5461;DHT22;2753;49.196;8.286;2023-05-16T13:32:23;13.70;91.20
5461;DHT22;2753;49.196;8.286;2023-05-16T13:34:49;13.70;91.40
5461;DHT22;2753;49.196;8.286;2023-05-16T13:37:16;13.80;91.60
5461;DHT22;2753;49.196;8.286;2023-05-16T13:39:42;13.80;91.30
5461;DHT22;2753;49.196;8.286;2023-05-16T13:42:07;13.80;91.30
5461;DHT22;2753;49.196;8.286;2023-05-16T13:44:33;13.90;91.40
5461;DHT22;2753;49.196;8.286;2023-05-16T13:46:59;13.90;90.90
5461;DHT22;2753;49.196;8.286;2023-05-16T13:49:25;13.90;90.20
5461;DHT22;2753;49.196;8.286;2023-05-16T13:51:51;14.00;90.00
5461;DHT22;2753;49.196;8.286;2023-05-16T13:54:18;14.00;90.10
5461;DHT22;2753;49.196;8.286;2023-05-16T13:56:44;14.10;90.50
5461;DHT22;2753;49.196;8.286;2023-05-16T13:59:09;14.10;90.00
5461;DHT22;2753;49.196;8.286;2023-05-16T14:01:35;14.10;90.30
5461;DHT22;2753;49.196;8.286;2023-05-16T14:04:01;14.20;90.60
5461;DHT22;2753;49.196;8.286;2023-05-16T14:06:27;14.20;90.20
5461;DHT22;2753;49.196;8.286;2023-05-16T14:08:53;14.30;90.30
5461;DHT22;2753;49.196;8.286;2023-05-16T14:11:19;14.20;89.70
5461;DHT22;2753;49.196;8.286;2023-05-16T14:13:50;14.30;90.00
5461;DHT22;2753;49.196;8.286;2023-05-16T14:16:17;14.30;89.80
5461;DHT22;2753;49.196;8.286;2023-05-16T14:18:42;14.30;89.70
5461;DHT22;2753;49.196;8.286;2023-05-16T14:21:08;14.30;89.90
5461;DHT22;2753;49.196;8.286;2023-05-16T14:23:34;14.40;90.10
5461;DHT22;2753;49.196;8.286;2023-05-16T14:26:00;14.40;90.20
5461;DHT22;2753;49.196;8.286;2023-05-16T14:28:27;14.50;90.00
5461;DHT22;2753;49.196;8.286;2023-05-16T14:30:53;14.50;89.60
5461;DHT22;2753;49.196;8.286;2023-05-16T14:33:18;14.50;89.30
5461;DHT22;2753;49.196;8.286;2023-05-16T14:35:44;14.60;89.90
5461;DHT22;2753;49.196;8.286;2023-05-16T14:38:10;14.60;90.00
5461;DHT22;2753;49.196;8.286;2023-05-16T14:40:35;14.60;89.90
5461;DHT22;2753;49.196;8.286;2023-05-16T14:43:01;14.70;90.10
5461;DHT22;2753;49.196;8.286;2023-05-16T14:45:28;14.70;89.30
5461;DHT22;2753;49.196;8.286;2023-05-16T14:47:54;14.80;89.70
5461;DHT22;2753;49.196;8.286;2023-05-16T14:50:20;14.90;90.00
5461;DHT22;2753;49.196;8.286;2023-05-16T14:52:46;14.90;90.00
5461;DHT22;2753;49.196;8.286;2023-05-16T14:55:11;15.00;90.30
5461;DHT22;2753;49.196;8.286;2023-05-16T14:57:37;15.10;89.80
5461;DHT22;2753;49.196;8.286;2023-05-16T15:00:03;15.20;90.00
5461;DHT22;2753;49.196;8.286;2023-05-16T15:02:30;15.30;90.00
5461;DHT22;2753;49.196;8.286;2023-05-16T15:04:55;15.30;88.50
5461;DHT22;2753;49.196;8.286;2023-05-16T15:07:21;15.40;89.30
5461;DHT22;2753;49.196;8.286;2023-05-16T15:09:47;15.40;89.80
5461;DHT22;2753;49.196;8.286;2023-05-16T15:12:13;15.50;89.10
5461;DHT22;2753;49.196;8.286;2023-05-16T15:14:38;15.50;88.70
5461;DHT22;2753;49.196;8.286;2023-05-16T15:17:04;15.50;87.60
5461;DHT22;2753;49.196;8.286;2023-05-16T15:19:30;15.50;88.30
5461;DHT22;2753;49.196;8.286;2023-05-16T15:21:55;15.50;87.50
5461;DHT22;2753;49.196;8.286;2023-05-16T15:24:21;15.50;87.50
5461;DHT22;2753;49.196;8.286;2023-05-16T15:26:47;15.50;86.00
5461;DHT22;2753;49.196;8.286;2023-05-16T15:29:14;15.50;85.30
5461;DHT22;2753;49.196;8.286;2023-05-16T15:31:40;15.60;87.00
5461;DHT22;2753;49.196;8.286;2023-05-16T15:34:05;15.70;82.60
5461;DHT22;2753;49.196;8.286;2023-05-16T15:36:33;15.60;80.20
5461;DHT22;2753;49.196;8.286;2023-05-16T15:38:59;15.70;78.80
5461;DHT22;2753;49.196;8.286;2023-05-16T15:41:24;15.70;76.70
5461;DHT22;2753;49.196;8.286;2023-05-16T15:43:51;15.80;76.60
5461;DHT22;2753;49.196;8.286;2023-05-16T15:46:17;15.80;74.90
5461;DHT22;2753;49.196;8.286;2023-05-16T15:48:43;15.80;76.20
5461;DHT22;2753;49.196;8.286;2023-05-16T15:51:12;15.70;75.80
5461;DHT22;2753;49.196;8.286;2023-05-16T15:53:38;15.80;76.50
5461;DHT22;2753;49.196;8.286;2023-05-16T15:56:04;15.80;76.90
5461;DHT22;2753;49.196;8.286;2023-05-16T15:58:31;15.80;76.60
5461;DHT22;2753;49.196;8.286;2023-05-16T16:00:56;15.80;74.20
5461;DHT22;2753;49.196;8.286;2023-05-16T16:03:22;15.90;75.50
5461;DHT22;2753;49.196;8.286;2023-05-16T16:05:49;15.90;75.30
5461;DHT22;2753;49.196;8.286;2023-05-16T16:08:17;15.90;74.10
5461;DHT22;2753;49.196;8.286;2023-05-16T16:10:43;15.90;75.80
5461;DHT22;2753;49.196;8.286;2023-05-16T16:13:09;16.00;74.10
5461;DHT22;2753;49.196;8.286;2023-05-16T16:15:34;15.90;72.90
5461;DHT22;2753;49.196;8.286;2023-05-16T16:18:00;15.90;73.50
5461;DHT22;2753;49.196;8.286;2023-05-16T16:20:26;15.80;73.40
5461;DHT22;2753;49.196;8.286;2023-05-16T16:22:52;15.80;73.20
5461;DHT22;2753;49.196;8.286;2023-05-16T16:25:18;15.70;72.60
5461;DHT22;2753;49.196;8.286;2023-05-16T16:27:44;15.70;73.40
5461;DHT22;2753;49.196;8.286;2023-05-16T16:30:10;15.70;73.30
5461;DHT22;2753;49.196;8.286;2023-05-16T16:32:36;15.70;73.30
5461;DHT22;2753;49.196;8.286;2023-05-16T16:35:02;15.80;73.50
5461;DHT22;2753;49.196;8.286;2023-05-16T16:37:33;15.70;72.80
5461;DHT22;2753;49.196;8.286;2023-05-16T16:39:59;15.70;73.00
5461;DHT22;2753;49.196;8.286;2023-05-16T16:42:25;15.70;73.00
5461;DHT22;2753;49.196;8.286;2023-05-16T16:44:52;15.70;72.30